createdAt,value
2019-01-31T00:00:45.150Z,28.07
2019-01-31T00:03:30.417Z,24.73
2019-01-31T00:06:13.785Z,28.53
2019-01-31T00:09:05.870Z,26.13
2019-01-31T00:12:22.219Z,26.23
2019-01-31T00:15:18.493Z,28.77
2019-01-31T00:18:08.368Z,28.73
2019-01-31T00:20:58.282Z,28.37
2019-01-31T00:23:42.368Z,27.80
2019-01-31T00:26:25.369Z,29.40
2019-01-31T00:29:05.573Z,28.47
2019-01-31T00:31:54.868Z,28.03
2019-01-31T00:34:40.356Z,27.17
2019-01-31T00:37:29.280Z,27.97
2019-01-31T00:40:36.773Z,27.50
2019-01-31T00:43:40.655Z,29.40
2019-01-31T00:46:43.454Z,25.67
2019-01-31T00:49:47.385Z,27.77
2019-01-31T00:53:01.324Z,27.20
2019-01-31T00:56:02.677Z,27.70
2019-01-31T00:58:45.974Z,26.37
2019-01-31T01:01:43.809Z,26.83
2019-01-31T01:04:31.126Z,29.37
2019-01-31T01:07:12.864Z,26.67
2019-01-31T01:09:51.972Z,28.90
2019-01-31T01:12:50.187Z,27.23
2019-01-31T01:15:59.068Z,28.60
2019-01-31T01:18:41.422Z,27.27
2019-01-31T01:21:27.644Z,28.43
2019-01-31T01:24:05.084Z,26.20
2019-01-31T01:26:41.913Z,26.03
2019-01-31T01:29:58.729Z,26.90
2019-01-31T01:33:04.337Z,25.33
2019-01-31T01:36:04.843Z,24.73
2019-01-31T01:39:00.856Z,26.17
2019-01-31T01:41:47.517Z,24.57
2019-01-31T01:45:00.053Z,23.87
2019-01-31T01:48:12.189Z,24.07
2019-01-31T01:51:10.233Z,27.93
2019-01-31T01:54:20.476Z,24.90
2019-01-31T01:57:04.825Z,26.90
2019-01-31T02:00:33.636Z,26.53
2019-01-31T02:03:13.214Z,25.77
2019-01-31T02:05:57.556Z,25.47
2019-01-31T02:09:07.189Z,24.97
2019-01-31T02:11:54.959Z,25.87
2019-01-31T02:14:55.101Z,25.73
2019-01-31T02:18:00.901Z,26.67
2019-01-31T02:21:06.063Z,25.80
2019-01-31T02:24:04.710Z,25.07
2019-01-31T02:27:16.556Z,24.83
2019-01-31T02:30:02.220Z,23.70
2019-01-31T02:33:23.714Z,25.23
2019-01-31T02:36:10.865Z,23.13
2019-01-31T02:39:26.573Z,23.07
2019-01-31T02:42:25.643Z,23.93
2019-01-31T02:45:17.638Z,23.00
2019-01-31T02:48:06.721Z,22.07
2019-01-31T02:50:57.221Z,23.27
2019-01-31T02:53:58.631Z,22.77
2019-01-31T02:56:57.278Z,23.63
2019-01-31T02:59:53.363Z,21.60
2019-01-31T03:03:05.004Z,23.93
2019-01-31T03:05:50.617Z,24.77
2019-01-31T03:09:02.968Z,22.33
2019-01-31T03:11:57.778Z,24.10
2019-01-31T03:14:33.360Z,25.43
2019-01-31T03:17:37.510Z,18.40
2019-01-31T03:20:31.562Z,21.57
2019-01-31T03:23:34.257Z,22.03
2019-01-31T03:27:03.469Z,21.77
2019-01-31T03:30:25.881Z,21.73
2019-01-31T03:33:11.060Z,22.37
2019-01-31T03:36:08.109Z,20.80
2019-01-31T03:38:55.672Z,20.57
2019-01-31T03:41:51.093Z,21.87
2019-01-31T03:44:54.185Z,22.47
2019-01-31T03:48:12.772Z,20.53
2019-01-31T03:50:56.705Z,19.07
2019-01-31T03:53:54.415Z,19.23
2019-01-31T03:56:55.959Z,18.37
2019-01-31T03:59:44.908Z,20.80
2019-01-31T04:02:42.790Z,20.70
2019-01-31T04:05:45.178Z,20.73
2019-01-31T04:08:16.825Z,20.03
2019-01-31T04:10:48.468Z,20.60
2019-01-31T04:13:20.114Z,19.30
2019-01-31T04:15:51.755Z,19.40
2019-01-31T04:18:23.386Z,19.83
2019-01-31T04:20:55.017Z,18.73
2019-01-31T04:23:26.760Z,18.57
2019-01-31T04:25:58.377Z,19.23
2019-01-31T04:28:30.771Z,20.13
2019-01-31T04:31:02.657Z,19.60
2019-01-31T04:33:34.289Z,20.33
2019-01-31T04:36:06.045Z,19.27
2019-01-31T04:38:37.708Z,20.47
2019-01-31T04:41:09.460Z,19.17
2019-01-31T04:43:41.193Z,20.50
2019-01-31T04:46:12.842Z,19.87
2019-01-31T04:48:44.477Z,19.57
2019-01-31T04:51:16.134Z,20.07
2019-01-31T04:53:47.866Z,18.13
2019-01-31T04:56:19.481Z,19.97
2019-01-31T04:58:51.120Z,21.87
2019-01-31T05:01:22.863Z,19.77
2019-01-31T05:03:54.614Z,19.23
2019-01-31T05:06:26.322Z,19.33
2019-01-31T05:08:57.978Z,18.20
2019-01-31T05:11:29.592Z,20.30
2019-01-31T05:14:01.333Z,18.83
2019-01-31T05:16:32.970Z,17.97
2019-01-31T05:19:04.606Z,19.07
2019-01-31T05:21:36.296Z,17.53
2019-01-31T05:24:08.052Z,19.33
2019-01-31T05:26:39.690Z,18.50
2019-01-31T05:29:12.887Z,18.30
2019-01-31T05:31:45.016Z,16.97
2019-01-31T05:34:16.652Z,17.50
2019-01-31T05:36:48.288Z,16.20
2019-01-31T05:39:20.005Z,16.40
2019-01-31T05:41:51.642Z,17.33
2019-01-31T05:44:23.629Z,15.33
2019-01-31T05:46:55.965Z,18.37
2019-01-31T05:49:29.934Z,15.63
2019-01-31T05:52:01.573Z,15.23
2019-01-31T05:54:33.243Z,16.47
2019-01-31T05:57:04.857Z,15.17
2019-01-31T05:59:36.501Z,15.13
2019-01-31T06:02:08.124Z,16.27
2019-01-31T06:04:39.777Z,14.63
2019-01-31T06:07:11.603Z,13.27
2019-01-31T06:09:43.264Z,14.27
2019-01-31T06:12:14.893Z,12.63
2019-01-31T06:14:46.541Z,13.50
2019-01-31T06:17:20.526Z,11.90
2019-01-31T06:19:52.165Z,11.00
2019-01-31T06:22:25.103Z,14.13
2019-01-31T06:24:56.815Z,13.03
2019-01-31T06:27:28.528Z,13.33
2019-01-31T06:30:00.200Z,13.57
2019-01-31T06:32:31.914Z,13.47
2019-01-31T06:35:04.287Z,13.90
2019-01-31T06:37:35.941Z,11.97
2019-01-31T06:40:10.106Z,13.77
2019-01-31T06:42:41.745Z,12.70
2019-01-31T06:45:15.505Z,13.37
2019-01-31T06:47:47.543Z,12.73
2019-01-31T06:50:19.322Z,12.03
2019-01-31T06:52:51.056Z,11.20
2019-01-31T06:55:22.794Z,12.43
2019-01-31T06:57:54.425Z,11.30
2019-01-31T07:00:26.065Z,12.23
2019-01-31T07:02:57.697Z,11.37
2019-01-31T07:05:29.324Z,11.47
2019-01-31T07:08:00.948Z,10.27
2019-01-31T07:10:32.689Z,13.27
2019-01-31T07:13:04.330Z,12.77
2019-01-31T07:15:36.064Z,11.30
2019-01-31T07:18:07.737Z,11.87
2019-01-31T07:20:39.483Z,11.93
2019-01-31T07:23:11.209Z,12.23
2019-01-31T07:25:42.844Z,12.73
2019-01-31T07:28:14.500Z,12.40
2019-01-31T07:30:46.145Z,10.07
2019-01-31T07:33:17.777Z,11.50
2019-01-31T07:35:52.205Z,12.47
2019-01-31T07:38:24.344Z,12.60
2019-01-31T07:40:56.004Z,10.90
2019-01-31T07:43:27.650Z,10.70
2019-01-31T07:45:59.300Z,12.27
2019-01-31T07:48:30.925Z,10.80
2019-01-31T07:51:03.552Z,11.73
2019-01-31T07:53:35.277Z,12.07
2019-01-31T07:56:06.917Z,11.50
2019-01-31T07:58:42.031Z,10.80
2019-01-31T08:01:14.065Z,11.60
2019-01-31T08:03:45.720Z,12.17
2019-01-31T08:06:17.373Z,11.47
2019-01-31T08:08:49.010Z,10.30
2019-01-31T08:11:20.638Z,9.30
2019-01-31T08:13:52.277Z,11.27
2019-01-31T08:16:24.313Z,11.70
2019-01-31T08:18:55.953Z,11.07
2019-01-31T08:21:36.516Z,10.33
2019-01-31T08:24:09.686Z,9.90
2019-01-31T08:26:41.478Z,9.47
2019-01-31T08:29:13.141Z,9.53
2019-01-31T08:31:44.779Z,10.00
2019-01-31T08:34:16.409Z,10.47
2019-01-31T08:36:48.061Z,10.13
2019-01-31T08:39:19.704Z,9.50
2019-01-31T08:41:51.393Z,10.20
2019-01-31T08:44:23.020Z,10.00
2019-01-31T08:46:54.665Z,9.57
2019-01-31T08:49:26.311Z,10.17
2019-01-31T08:51:57.959Z,9.27
2019-01-31T08:54:29.633Z,9.57
2019-01-31T08:57:01.299Z,9.17
2019-01-31T08:59:32.925Z,7.83
2019-01-31T09:02:04.689Z,9.03
2019-01-31T09:04:36.311Z,8.10
2019-01-31T09:07:07.957Z,7.00
2019-01-31T09:09:39.592Z,7.77
2019-01-31T09:12:15.353Z,7.77
2019-01-31T09:14:44.777Z,7.30
2019-01-31T09:17:17.256Z,7.83
2019-01-31T09:19:48.918Z,8.47
2019-01-31T09:22:28.795Z,7.80
2019-01-31T09:25:37.183Z,7.97
2019-01-31T09:28:52.072Z,7.83
2019-01-31T09:31:50.581Z,7.60
2019-01-31T09:34:35.196Z,7.10
2019-01-31T09:37:50.856Z,7.67
2019-01-31T09:40:56.853Z,7.77
2019-01-31T09:44:05.305Z,7.43
2019-01-31T09:46:51.679Z,7.27
2019-01-31T09:49:52.900Z,7.97
2019-01-31T09:52:49.474Z,7.03
2019-01-31T09:55:46.977Z,6.20
2019-01-31T09:58:47.730Z,7.73
2019-01-31T10:01:53.658Z,6.53
2019-01-31T10:05:03.013Z,6.27
2019-01-31T10:08:10.640Z,6.77
2019-01-31T10:11:26.110Z,6.70
2019-01-31T10:14:50.785Z,6.73
2019-01-31T10:17:52.968Z,7.17
2019-01-31T10:20:49.346Z,7.50
2019-01-31T10:23:45.760Z,7.17
2019-01-31T10:26:39.269Z,7.70
2019-01-31T10:29:34.989Z,6.87
2019-01-31T10:32:47.961Z,7.60
2019-01-31T10:35:31.062Z,7.40
2019-01-31T10:38:28.396Z,7.97
2019-01-31T10:41:43.706Z,6.90
2019-01-31T10:44:34.191Z,6.37
2019-01-31T10:48:05.653Z,7.83
2019-01-31T10:50:46.495Z,6.53
2019-01-31T10:53:49.612Z,7.07
2019-01-31T10:56:59.149Z,6.90
2019-01-31T11:00:16.222Z,6.83
2019-01-31T11:03:13.614Z,6.60
2019-01-31T11:06:21.816Z,5.97
2019-01-31T11:09:31.092Z,7.50
2019-01-31T11:13:00.251Z,6.87
2019-01-31T11:15:59.004Z,6.17
2019-01-31T11:18:44.033Z,6.30
2019-01-31T11:22:12.736Z,6.53
2019-01-31T11:25:01.873Z,5.83
2019-01-31T11:27:55.214Z,6.50
2019-01-31T11:30:41.077Z,6.00
2019-01-31T11:33:33.202Z,5.80
2019-01-31T11:36:26.730Z,7.77
2019-01-31T11:39:23.604Z,6.17
2019-01-31T11:42:17.411Z,7.43
2019-01-31T11:45:21.660Z,6.50
2019-01-31T11:48:12.436Z,6.20
2019-01-31T11:51:17.705Z,6.80
2019-01-31T11:54:02.575Z,5.90
2019-01-31T11:56:47.465Z,6.10
2019-01-31T11:59:19.116Z,6.60
2019-01-31T12:01:50.877Z,6.93
2019-01-31T12:04:22.679Z,5.70
2019-01-31T12:06:54.312Z,6.87
2019-01-31T12:09:25.949Z,7.73
2019-01-31T12:11:57.703Z,7.03
2019-01-31T12:14:29.342Z,6.20
2019-01-31T12:17:01.090Z,5.60
2019-01-31T12:19:32.718Z,6.40
2019-01-31T12:22:04.550Z,5.83
2019-01-31T12:24:36.275Z,7.83
2019-01-31T12:27:08.116Z,5.97
2019-01-31T12:29:39.752Z,5.30
2019-01-31T12:32:11.387Z,5.47
2019-01-31T12:34:43.400Z,4.33
2019-01-31T12:37:15.173Z,5.53
2019-01-31T12:39:46.857Z,4.50
2019-01-31T12:42:18.486Z,5.93
2019-01-31T12:44:50.137Z,4.40
2019-01-31T12:47:21.885Z,3.97
2019-01-31T12:49:53.513Z,3.10
2019-01-31T12:52:25.174Z,3.67
2019-01-31T12:54:56.810Z,7.53
2019-01-31T12:57:28.461Z,3.47
2019-01-31T13:00:00.184Z,4.77
2019-01-31T13:02:31.837Z,4.47
2019-01-31T13:05:04.687Z,4.60
2019-01-31T13:07:36.322Z,4.10
2019-01-31T13:10:08.186Z,5.10
2019-01-31T13:12:48.392Z,5.17
2019-01-31T13:15:14.105Z,4.80
2019-01-31T13:17:45.961Z,5.43
2019-01-31T13:20:19.670Z,6.97
2019-01-31T13:22:53.399Z,4.43
2019-01-31T13:25:26.533Z,5.43
2019-01-31T13:27:58.320Z,4.70
2019-01-31T13:30:29.932Z,5.87
2019-01-31T13:33:01.761Z,5.37
2019-01-31T13:35:33.442Z,6.13
2019-01-31T13:38:05.309Z,4.07
2019-01-31T13:40:36.961Z,5.03
2019-01-31T13:43:08.737Z,4.30
2019-01-31T13:45:40.553Z,4.50
2019-01-31T13:48:13.971Z,5.20
2019-01-31T13:50:45.706Z,5.33
2019-01-31T13:53:17.517Z,6.07
2019-01-31T13:55:49.260Z,5.30
2019-01-31T13:58:20.903Z,3.57
2019-01-31T14:00:52.547Z,3.33
2019-01-31T14:03:24.221Z,4.07
2019-01-31T14:05:55.849Z,3.20
2019-01-31T14:08:27.484Z,3.33
2019-01-31T14:10:59.112Z,2.57
2019-01-31T14:13:30.765Z,3.23
2019-01-31T14:16:02.690Z,5.20
2019-01-31T14:18:34.345Z,4.30
2019-01-31T14:21:06.670Z,3.67
2019-01-31T14:23:38.316Z,3.50
2019-01-31T14:26:09.934Z,4.73
2019-01-31T14:28:41.564Z,3.37
2019-01-31T14:31:13.168Z,4.33
2019-01-31T14:33:44.805Z,4.27
2019-01-31T14:36:16.440Z,3.63
2019-01-31T14:38:48.149Z,4.20
2019-01-31T14:41:19.842Z,2.87
2019-01-31T14:43:51.497Z,4.90
2019-01-31T14:46:23.137Z,3.93
2019-01-31T14:48:54.807Z,4.27
2019-01-31T14:51:26.424Z,3.90
2019-01-31T14:53:58.099Z,4.70
2019-01-31T14:56:29.726Z,4.27
2019-01-31T14:59:01.369Z,3.50
2019-01-31T15:01:33.013Z,3.60
2019-01-31T15:04:04.792Z,3.90
2019-01-31T15:06:37.342Z,3.27
2019-01-31T15:09:09.064Z,5.40
2019-01-31T15:11:40.728Z,3.47
2019-01-31T15:14:12.385Z,3.97
2019-01-31T15:16:44.056Z,4.03
2019-01-31T15:19:15.753Z,3.20
2019-01-31T15:21:47.399Z,4.00
2019-01-31T15:24:19.139Z,3.73
2019-01-31T15:26:50.889Z,5.10
2019-01-31T15:29:22.570Z,4.90
2019-01-31T15:31:54.424Z,5.10
2019-01-31T15:34:26.069Z,5.17
2019-01-31T15:36:57.753Z,5.10
2019-01-31T15:39:29.425Z,3.93
2019-01-31T15:42:01.099Z,4.73
2019-01-31T15:44:42.790Z,4.00
2019-01-31T15:47:06.419Z,4.17
2019-01-31T15:49:38.158Z,3.63
2019-01-31T15:52:09.809Z,4.80
2019-01-31T15:54:41.490Z,4.23
2019-01-31T15:57:16.668Z,6.23
2019-01-31T15:59:46.775Z,5.60
2019-01-31T16:02:18.626Z,6.83
2019-01-31T16:04:50.269Z,5.13
2019-01-31T16:07:22.037Z,5.70
2019-01-31T16:09:53.707Z,6.83
2019-01-31T16:12:25.411Z,6.60
2019-01-31T16:14:57.064Z,6.67
2019-01-31T16:17:28.793Z,6.07
2019-01-31T16:20:00.433Z,5.87
2019-01-31T16:22:32.198Z,4.30
2019-01-31T16:25:04.483Z,3.17
2019-01-31T16:27:36.236Z,4.80
2019-01-31T16:30:09.786Z,4.70
2019-01-31T16:32:41.638Z,5.07
2019-01-31T16:35:13.404Z,4.90
2019-01-31T16:37:45.666Z,5.67
2019-01-31T16:40:17.420Z,4.97
2019-01-31T16:42:49.080Z,5.10
2019-01-31T16:45:21.913Z,6.53
2019-01-31T16:47:53.565Z,6.33
2019-01-31T16:50:25.710Z,6.90
2019-01-31T16:52:57.536Z,7.17
2019-01-31T16:55:29.266Z,6.70
2019-01-31T16:58:01.094Z,6.97
2019-01-31T17:00:32.956Z,7.80
2019-01-31T17:03:05.363Z,9.67
2019-01-31T17:05:39.275Z,8.27
2019-01-31T17:08:11.028Z,7.90
2019-01-31T17:10:42.658Z,9.80
2019-01-31T17:13:14.298Z,10.47
2019-01-31T17:15:45.985Z,10.20
2019-01-31T17:18:17.754Z,10.33
2019-01-31T17:20:49.479Z,9.27
2019-01-31T17:23:21.113Z,6.97
2019-01-31T17:25:52.749Z,8.30
2019-01-31T17:28:24.385Z,8.57
2019-01-31T17:30:56.038Z,9.03
2019-01-31T17:33:27.696Z,9.97
2019-01-31T17:35:59.325Z,11.50
2019-01-31T17:38:33.079Z,11.67
2019-01-31T17:41:07.394Z,12.37
2019-01-31T17:43:39.106Z,10.97
2019-01-31T17:46:11.678Z,10.87
2019-01-31T17:48:44.097Z,11.97
2019-01-31T17:51:19.501Z,12.93
2019-01-31T17:53:51.389Z,12.63
2019-01-31T17:56:23.062Z,11.73
2019-01-31T17:58:54.730Z,11.03
2019-01-31T18:01:26.380Z,11.97
2019-01-31T18:03:58.061Z,12.43
2019-01-31T18:06:29.742Z,12.83
2019-01-31T18:09:01.414Z,12.77
2019-01-31T18:11:33.246Z,12.47
2019-01-31T18:14:05.503Z,13.07
2019-01-31T18:16:37.131Z,11.57
2019-01-31T18:19:08.762Z,11.70
2019-01-31T18:21:40.609Z,12.33
2019-01-31T18:24:12.297Z,13.37
2019-01-31T18:26:43.964Z,11.87
2019-01-31T18:29:15.644Z,12.53
2019-01-31T18:31:49.726Z,12.37
2019-01-31T18:34:21.377Z,12.70
2019-01-31T18:36:53.082Z,12.07
2019-01-31T18:39:24.738Z,12.67
2019-01-31T18:41:56.574Z,12.77
2019-01-31T18:44:28.208Z,11.63
2019-01-31T18:46:59.887Z,13.13
2019-01-31T18:49:31.566Z,11.63
2019-01-31T18:52:03.304Z,11.23
2019-01-31T18:54:34.957Z,11.80
2019-01-31T18:57:06.581Z,12.00
2019-01-31T18:59:38.248Z,11.83
2019-01-31T19:02:10.310Z,12.40
2019-01-31T19:04:41.943Z,13.23
2019-01-31T19:07:13.833Z,13.33
2019-01-31T19:09:45.579Z,14.07
2019-01-31T19:12:17.232Z,12.27
2019-01-31T19:14:48.856Z,13.77
2019-01-31T19:17:20.514Z,13.93
2019-01-31T19:19:52.153Z,14.30
2019-01-31T19:22:25.725Z,14.27
2019-01-31T19:24:57.452Z,14.00
2019-01-31T19:27:29.233Z,16.77
2019-01-31T19:30:00.994Z,16.63
2019-01-31T19:32:32.638Z,15.97
2019-01-31T19:35:06.745Z,16.87
2019-01-31T19:37:38.471Z,17.43
2019-01-31T19:40:13.052Z,17.90
2019-01-31T19:42:44.719Z,17.73
2019-01-31T19:45:25.130Z,17.30
2019-01-31T19:47:56.883Z,20.00
2019-01-31T19:50:28.950Z,19.40
2019-01-31T19:53:00.712Z,18.67
2019-01-31T19:55:32.777Z,19.87
2019-01-31T19:58:04.960Z,19.10
2019-01-31T20:00:36.813Z,20.60
2019-01-31T20:03:08.782Z,18.80
2019-01-31T20:05:40.538Z,22.57
2019-01-31T20:08:12.282Z,21.43
2019-01-31T20:10:44.036Z,21.37
2019-01-31T20:13:15.695Z,24.10
2019-01-31T20:15:47.358Z,22.43
2019-01-31T20:18:19.064Z,23.87
2019-01-31T20:20:50.729Z,24.73
2019-01-31T20:23:22.500Z,25.80
2019-01-31T20:25:54.187Z,25.20
2019-01-31T20:28:25.874Z,25.03
2019-01-31T20:30:57.553Z,27.10
2019-01-31T20:33:30.138Z,25.43
2019-01-31T20:36:01.783Z,27.40
2019-01-31T20:38:33.422Z,27.77
2019-01-31T20:41:05.450Z,26.63
2019-01-31T20:43:37.134Z,28.00
2019-01-31T20:46:08.810Z,28.83
2019-01-31T20:48:40.462Z,26.67
2019-01-31T20:51:12.839Z,29.87
2019-01-31T20:53:44.610Z,26.10
2019-01-31T20:56:16.265Z,28.20
2019-01-31T20:58:47.905Z,30.03
2019-01-31T21:01:19.545Z,30.67
2019-01-31T21:03:51.183Z,29.30
2019-01-31T21:06:22.833Z,29.00
2019-01-31T21:08:54.462Z,30.17
2019-01-31T21:11:26.112Z,30.03
2019-01-31T21:13:57.757Z,29.33
2019-01-31T21:16:29.638Z,32.20
2019-01-31T21:19:01.376Z,31.53
2019-01-31T21:21:33.039Z,33.27
2019-01-31T21:24:04.770Z,30.37
2019-01-31T21:26:36.431Z,30.53
2019-01-31T21:29:08.070Z,33.67
2019-01-31T21:31:39.717Z,31.60
2019-01-31T21:34:11.365Z,33.87
2019-01-31T21:36:43.030Z,34.33
2019-01-31T21:39:14.654Z,33.63
2019-01-31T21:41:46.325Z,34.37
2019-01-31T21:44:17.961Z,36.30
2019-01-31T21:46:49.620Z,35.10
2019-01-31T21:49:21.274Z,34.10
2019-01-31T21:51:52.908Z,36.33
2019-01-31T21:54:24.544Z,36.00
2019-01-31T21:56:56.295Z,33.87
2019-01-31T21:59:27.920Z,35.33
2019-01-31T22:01:59.586Z,35.87
2019-01-31T22:04:31.346Z,37.37
2019-01-31T22:07:03.234Z,32.90
2019-01-31T22:09:34.865Z,36.73
2019-01-31T22:12:06.496Z,38.20
2019-01-31T22:14:38.125Z,37.93
2019-01-31T22:17:14.831Z,39.07
2019-01-31T22:19:43.293Z,37.87
2019-01-31T22:22:14.941Z,42.90
2019-01-31T22:24:46.586Z,39.90
2019-01-31T22:27:18.221Z,36.97
2019-01-31T22:29:49.878Z,42.00
2019-01-31T22:32:21.528Z,36.57
2019-01-31T22:34:53.157Z,38.50
2019-01-31T22:37:24.794Z,38.80
2019-01-31T22:39:56.442Z,39.23
2019-01-31T22:42:28.362Z,37.07
2019-01-31T22:45:00.008Z,41.47
2019-01-31T22:47:31.741Z,34.17
2019-01-31T22:50:04.536Z,40.87
2019-01-31T22:52:36.381Z,41.00
2019-01-31T22:55:08.634Z,40.73
2019-01-31T22:57:41.990Z,41.13
2019-01-31T23:00:28.165Z,39.07
2019-01-31T23:02:59.933Z,39.67
2019-01-31T23:05:31.541Z,42.10
2019-01-31T23:08:03.405Z,40.10
2019-01-31T23:10:35.046Z,42.33
2019-01-31T23:13:06.684Z,26.73
2019-01-31T23:15:38.306Z,32.00
2019-01-31T23:18:11.841Z,42.97
2019-01-31T23:20:44.372Z,41.83
2019-01-31T23:23:16.206Z,25.43
2019-01-31T23:25:47.833Z,45.30
2019-01-31T23:28:19.479Z,41.90
2019-01-31T23:30:51.096Z,42.10
2019-01-31T23:33:22.849Z,43.70
2019-01-31T23:35:54.496Z,43.70
2019-01-31T23:38:26.125Z,42.20
2019-01-31T23:40:57.769Z,38.03
2019-01-31T23:43:29.432Z,43.63
2019-01-31T23:46:01.150Z,41.17
2019-01-31T23:48:32.885Z,41.43
2019-01-31T23:51:04.708Z,41.90
2019-01-31T23:53:36.347Z,43.47
2019-01-31T23:56:08.060Z,39.93
2019-01-31T23:58:40.102Z,29.37
